Airfield :
LOGIN :

Register | Disclaimer

   EN    FR    IT 

 










Legend :    VFR   Marginal VFR   IFR   Intensive IFR   Very Intensive IFR
Visi :
Ceiling :
>= 8 km
>= 3000ft
5 to 8 km
1000 to 3000 ft
1500m to 5 km
500 to 1000 ft
800 to 1500m
200 to 500 ft
< 800m
< 200 ft
Symbols :   Thunderstorms  Fog  Heavy snow  Heavy precipitations  Wind > 20 kt
SIGMETs :     Misc.  Thunderstorms  Icing  Turbulence  Mountain Waves  Volcanic Ashes






- Airport Elevation : 616 ft
- IATA code : PUF


LFBP - Pau

CURRENT METAR :
  • 070330Z AUTO 12003KT 8000 FEW040 BKN062 OVC076 08/07 Q1015 TEMPO BKN013

EXPIRED METARs :
  • 070300Z AUTO 11004KT 8000 FEW045 SCT064 OVC076 08/07 Q1015 TEMPO 3000 BR BKN013
  • 070230Z AUTO 10003KT 8000 FEW045 BKN066 BKN076 08/07 Q1016 TEMPO 3000 BR BKN013
  • 070200Z AUTO 08003KT 7000 FEW048 BKN066 08/07 Q1016 TEMPO 3000 BR VV///
  • 070130Z AUTO 11002KT 9000 FEW049 BKN080 08/08 Q1016 TEMPO 3000 BR VV///
  • 070100Z AUTO 12003KT 9000 OVC074 09/08 Q1016 TEMPO 0600 FG VV///

TAF TAF LFBP
Valid from the 07 at 00:00 until the 08 at 00:00 UTC


062300Z 0700/0724 VRB03KT 6000 SCT035 BKN070
PROB40
TEMPO 0700/0704 3000 BR
PROB30
TEMPO 0700/0703 0600 FG VV///
TEMPO 0704/0712 BKN013
BECMG 0716/0718 BKN012
BECMG 0718/0720 4000 BR OVC006
TEMPO 0719/0724 0600 FG OVC002



MET'MAP, your aeronautical weather chart ! - Copyright ORBIFLY December 2007 - Disclaimer

ORBIFLY MET'MAP TEAM :

Programming & Development : Alexandra Zaïnal
Original concept : Baudouin d'Aumeries
Technical & hardware support : Manuel Goepfert
Assistance : Marc-Olivier Méhu




SOURCES & CREDITS :

   NOAA